createdAt,value
2019-01-03T00:00:27.008Z,100993.00
2019-01-03T00:03:19.258Z,100991.91
2019-01-03T00:06:08.928Z,100998.36
2019-01-03T00:08:54.407Z,100996.87
2019-01-03T00:11:41.180Z,100998.53
2019-01-03T00:14:29.925Z,101000.34
2019-01-03T00:17:15.543Z,100993.96
2019-01-03T00:20:00.793Z,100999.29
2019-01-03T00:22:54.077Z,101000.48
2019-01-03T00:25:43.077Z,100998.20
2019-01-03T00:28:29.408Z,101010.70
2019-01-03T00:31:10.969Z,101008.78
2019-01-03T00:33:55.757Z,101016.87
2019-01-03T00:36:41.957Z,101009.87
2019-01-03T00:39:26.927Z,101011.41
2019-01-03T00:42:22.806Z,101015.84
2019-01-03T00:45:08.054Z,101012.14
2019-01-03T00:48:02.307Z,101014.90
2019-01-03T00:51:01.242Z,101011.66
2019-01-03T00:53:46.326Z,101019.16
2019-01-03T00:56:31.814Z,101013.50
2019-01-03T00:59:21.309Z,101010.42
2019-01-03T01:02:06.203Z,101008.95
2019-01-03T01:04:52.356Z,101011.50
2019-01-03T01:07:55.051Z,101015.00
2019-01-03T01:10:53.515Z,101010.17
2019-01-03T01:13:38.397Z,101016.42
2019-01-03T01:16:27.857Z,101010.42
2019-01-03T01:19:18.998Z,101005.66
2019-01-03T01:22:04.253Z,101014.12
2019-01-03T01:24:59.814Z,101018.27
2019-01-03T01:27:46.169Z,101016.88
2019-01-03T01:30:31.138Z,101018.66
2019-01-03T01:33:23.871Z,101024.31
2019-01-03T01:36:09.403Z,101027.04
2019-01-03T01:38:57.187Z,101016.84
2019-01-03T01:41:38.994Z,101021.37
2019-01-03T01:44:34.639Z,101025.05
2019-01-03T01:47:15.459Z,101021.16
2019-01-03T01:50:01.479Z,101026.13
2019-01-03T01:52:50.122Z,101033.48
2019-01-03T01:55:36.548Z,101032.04
2019-01-03T01:58:22.647Z,101023.86
2019-01-03T02:01:18.644Z,101028.14
2019-01-03T02:04:04.040Z,101029.73
2019-01-03T02:06:49.000Z,101027.15
2019-01-03T02:09:41.348Z,101036.99
2019-01-03T02:12:26.540Z,101035.89
2019-01-03T02:15:19.453Z,101035.95
2019-01-03T02:18:14.872Z,101049.69
2019-01-03T02:21:06.802Z,101042.20
2019-01-03T02:24:11.297Z,101037.13
2019-01-03T02:27:15.939Z,101039.52
2019-01-03T02:30:00.913Z,101041.03
2019-01-03T02:32:44.983Z,101034.23
2019-01-03T02:35:30.503Z,101039.27
2019-01-03T02:38:22.187Z,101040.21
2019-01-03T02:41:11.568Z,101043.84
2019-01-03T02:44:00.015Z,101040.45
2019-01-03T02:46:53.351Z,101048.62
2019-01-03T02:49:34.131Z,101044.78
2019-01-03T02:52:20.470Z,101047.52
2019-01-03T02:55:25.024Z,101055.37
2019-01-03T02:58:11.383Z,101052.41
2019-01-03T03:01:01.110Z,101049.70
2019-01-03T03:03:46.306Z,101046.33
2019-01-03T03:06:38.392Z,101041.87
2019-01-03T03:09:27.742Z,101035.17
2019-01-03T03:12:14.032Z,101034.77
2019-01-03T03:15:13.002Z,101044.73
2019-01-03T03:18:02.577Z,101033.89
2019-01-03T03:20:41.950Z,101031.36
2019-01-03T03:23:31.201Z,101030.69
2019-01-03T03:26:16.070Z,101022.09
2019-01-03T03:29:10.556Z,101017.86
2019-01-03T03:32:01.344Z,101010.70
2019-01-03T03:34:59.436Z,101007.75
2019-01-03T03:37:41.451Z,100996.34
2019-01-03T03:40:43.178Z,100996.24
2019-01-03T03:43:36.053Z,100990.00
2019-01-03T03:46:17.929Z,100988.23
2019-01-03T03:49:04.280Z,100985.53
2019-01-03T03:52:03.101Z,100989.78
2019-01-03T03:54:52.916Z,100996.14
2019-01-03T03:57:39.285Z,100999.08
2019-01-03T04:00:25.651Z,100990.72
2019-01-03T04:03:27.024Z,100975.63
2019-01-03T04:06:11.922Z,100978.43
2019-01-03T04:08:56.908Z,100970.44
2019-01-03T04:11:55.540Z,100966.50
2019-01-03T04:14:44.637Z,100960.30
2019-01-03T04:17:36.525Z,100958.13
2019-01-03T04:20:25.132Z,100949.67
2019-01-03T04:23:14.483Z,100924.70
2019-01-03T04:25:59.679Z,100929.86
2019-01-03T04:28:43.994Z,100935.30
2019-01-03T04:31:23.960Z,100944.91
2019-01-03T04:34:09.153Z,100931.93
2019-01-03T04:36:49.697Z,100937.97
2019-01-03T04:39:34.792Z,100955.01
2019-01-03T04:42:19.939Z,100954.53
2019-01-03T04:45:00.405Z,100963.16
2019-01-03T04:47:47.728Z,100963.61
2019-01-03T04:50:32.696Z,100957.31
2019-01-03T04:53:21.728Z,100960.00
2019-01-03T04:56:09.483Z,100958.16
2019-01-03T04:58:54.768Z,100945.88
2019-01-03T05:02:05.822Z,100953.00
2019-01-03T05:04:50.802Z,100946.58
2019-01-03T05:07:37.753Z,100945.86
2019-01-03T05:10:33.054Z,100946.36
2019-01-03T05:13:19.532Z,100942.12
2019-01-03T05:16:17.914Z,100935.87
2019-01-03T05:19:16.327Z,100939.89
2019-01-03T05:22:01.361Z,100938.22
2019-01-03T05:24:51.473Z,100926.88
2019-01-03T05:27:37.965Z,100940.72
2019-01-03T05:30:31.167Z,100949.81
2019-01-03T05:33:35.365Z,100949.66
2019-01-03T05:36:23.448Z,100939.95
2019-01-03T05:39:11.066Z,100929.38
2019-01-03T05:42:15.767Z,100921.81
2019-01-03T05:45:01.699Z,100934.68
2019-01-03T05:47:46.433Z,100929.77
2019-01-03T05:50:31.190Z,100938.73
2019-01-03T05:53:16.174Z,100925.66
2019-01-03T05:56:01.236Z,100926.89
2019-01-03T05:58:45.476Z,100938.52
2019-01-03T06:01:46.876Z,100936.19
2019-01-03T06:04:32.267Z,100937.02
2019-01-03T06:07:34.486Z,100937.38
2019-01-03T06:10:14.220Z,100946.63
2019-01-03T06:12:58.959Z,100944.28
2019-01-03T06:15:51.302Z,100942.84
2019-01-03T06:18:47.200Z,100943.36
2019-01-03T06:21:48.680Z,100944.94
2019-01-03T06:24:37.884Z,100935.22
2019-01-03T06:27:22.805Z,100944.98
2019-01-03T06:30:08.176Z,100936.05
2019-01-03T06:32:53.017Z,100939.16
2019-01-03T06:35:38.321Z,100942.49
2019-01-03T06:38:36.964Z,100947.77
2019-01-03T06:41:27.931Z,100943.95
2019-01-03T06:44:13.705Z,100946.98
2019-01-03T06:46:58.449Z,100960.55
2019-01-03T06:49:44.773Z,100958.00
2019-01-03T06:52:49.177Z,100966.44
2019-01-03T06:55:47.497Z,100958.05
2019-01-03T06:58:35.192Z,100956.11
2019-01-03T07:01:27.975Z,100957.72
2019-01-03T07:04:15.891Z,100963.20
2019-01-03T07:07:12.643Z,100958.21
2019-01-03T07:09:57.816Z,100964.11
2019-01-03T07:12:44.169Z,100965.84
2019-01-03T07:15:39.206Z,100976.16
2019-01-03T07:18:20.385Z,100987.14
2019-01-03T07:21:05.326Z,101004.59
2019-01-03T07:23:50.296Z,100988.99
2019-01-03T07:26:35.099Z,100980.84
2019-01-03T07:29:20.274Z,100989.86
2019-01-03T07:32:00.829Z,100995.98
2019-01-03T07:35:02.360Z,100989.61
2019-01-03T07:37:47.500Z,100997.53
2019-01-03T07:40:27.183Z,100998.11
2019-01-03T07:43:12.345Z,101006.70
2019-01-03T07:45:54.170Z,101013.64
2019-01-03T07:48:39.615Z,101011.62
2019-01-03T07:51:44.239Z,101008.90
2019-01-03T07:54:44.725Z,101000.36
2019-01-03T07:57:34.594Z,101004.77
2019-01-03T08:00:19.821Z,101003.13
2019-01-03T08:03:04.916Z,101012.84
2019-01-03T08:05:53.985Z,101001.39
2019-01-03T08:08:39.570Z,100999.04
2019-01-03T08:11:38.259Z,100998.78
2019-01-03T08:14:24.238Z,101003.45
2019-01-03T08:17:09.323Z,101008.84
2019-01-03T08:20:10.753Z,101012.52
2019-01-03T08:23:08.767Z,101021.00
2019-01-03T08:25:49.197Z,101025.09
2019-01-03T08:28:34.198Z,100797.23
2019-01-03T08:31:19.202Z,101004.52
2019-01-03T08:34:09.155Z,101009.78
2019-01-03T08:37:01.455Z,101006.57
2019-01-03T08:39:58.136Z,101023.05
2019-01-03T08:42:48.912Z,101012.25
2019-01-03T08:45:34.285Z,101012.23
2019-01-03T08:48:19.586Z,101006.37
2019-01-03T08:51:06.162Z,101016.14
2019-01-03T08:53:51.229Z,101004.83
2019-01-03T08:56:32.225Z,101014.59
2019-01-03T08:59:19.811Z,101003.83
2019-01-03T09:02:10.959Z,101010.67
2019-01-03T09:05:03.113Z,101018.98
2019-01-03T09:08:01.189Z,101021.05
2019-01-03T09:10:47.754Z,101025.94
2019-01-03T09:13:34.197Z,101029.28
2019-01-03T09:16:14.398Z,101034.14
2019-01-03T09:18:59.367Z,101048.94
2019-01-03T09:21:52.117Z,101033.80
2019-01-03T09:24:47.860Z,101028.41
2019-01-03T09:27:40.592Z,101037.39
2019-01-03T09:30:25.554Z,101036.80
2019-01-03T09:33:14.983Z,101038.62
2019-01-03T09:36:01.324Z,101036.95
2019-01-03T09:38:46.897Z,101032.36
2019-01-03T09:41:32.251Z,101032.17
2019-01-03T09:44:19.090Z,101025.01
2019-01-03T09:46:46.110Z,101031.61
2019-01-03T09:49:12.968Z,101039.16
2019-01-03T09:51:39.697Z,101025.84
2019-01-03T09:54:06.624Z,101030.92
2019-01-03T09:56:33.343Z,101026.01
2019-01-03T09:59:01.749Z,101030.58
2019-01-03T10:01:28.515Z,101016.39
2019-01-03T10:03:55.374Z,101023.75
2019-01-03T10:06:22.110Z,101019.79
2019-01-03T10:08:48.973Z,101028.38
2019-01-03T10:11:15.753Z,101022.20
2019-01-03T10:13:42.492Z,101028.27
2019-01-03T10:16:10.822Z,101031.48
2019-01-03T10:18:38.020Z,101027.86
2019-01-03T10:21:04.789Z,101019.02
2019-01-03T10:23:31.921Z,101021.47
2019-01-03T10:25:58.752Z,101018.70
2019-01-03T10:28:25.552Z,101019.42
2019-01-03T10:30:52.658Z,101013.05
2019-01-03T10:33:20.728Z,101008.31
2019-01-03T10:35:47.491Z,101009.31
2019-01-03T10:38:14.245Z,101006.58
2019-01-03T10:40:41.101Z,101007.03
2019-01-03T10:43:07.840Z,100995.03
2019-01-03T10:45:34.579Z,100995.88
2019-01-03T10:48:01.297Z,100997.06
2019-01-03T10:50:28.277Z,100980.13
2019-01-03T10:52:54.978Z,100975.61
2019-01-03T10:55:23.251Z,100970.39
2019-01-03T10:57:50.128Z,100987.35
2019-01-03T11:00:24.285Z,100964.00
2019-01-03T11:02:51.074Z,100969.50
2019-01-03T11:05:17.888Z,100962.80
2019-01-03T11:07:45.556Z,100955.04
2019-01-03T11:10:12.578Z,100964.04
2019-01-03T11:12:39.520Z,100946.28
2019-01-03T11:15:06.771Z,100944.00
2019-01-03T11:17:36.231Z,100942.36
2019-01-03T11:20:04.084Z,100935.17
2019-01-03T11:22:30.758Z,100942.99
2019-01-03T11:24:57.655Z,100935.31
2019-01-03T11:27:25.623Z,100939.08
2019-01-03T11:29:53.004Z,100932.84
2019-01-03T11:32:19.756Z,100932.66
2019-01-03T11:34:46.551Z,100926.31
2019-01-03T11:37:13.263Z,100929.41
2019-01-03T11:39:41.445Z,100920.11
2019-01-03T11:42:08.147Z,100924.47
2019-01-03T11:44:34.905Z,100916.81
2019-01-03T11:47:01.635Z,100929.20
2019-01-03T11:49:31.652Z,100915.04
2019-01-03T11:51:58.514Z,100902.56
2019-01-03T11:54:25.222Z,100911.91
2019-01-03T11:56:54.652Z,100913.57
2019-01-03T11:59:21.639Z,100911.59
2019-01-03T12:01:48.843Z,100910.44
2019-01-03T12:04:16.494Z,100903.03
2019-01-03T12:06:43.257Z,100905.98
2019-01-03T12:09:10.456Z,100910.92
2019-01-03T12:11:37.597Z,100907.66
2019-01-03T12:14:04.339Z,100903.55
2019-01-03T12:16:31.188Z,100904.00
2019-01-03T12:18:59.944Z,100895.44
2019-01-03T12:21:26.866Z,100892.41
2019-01-03T12:23:56.021Z,100893.34
2019-01-03T12:26:22.753Z,100892.52
2019-01-03T12:28:49.548Z,100890.51
2019-01-03T12:31:16.325Z,100892.88
2019-01-03T12:33:44.313Z,100846.25
2019-01-03T12:36:11.448Z,100893.83
2019-01-03T12:38:39.388Z,100898.07
2019-01-03T12:41:06.391Z,100892.95
2019-01-03T12:43:33.132Z,100886.44
2019-01-03T12:45:59.941Z,100887.19
2019-01-03T12:48:26.877Z,100882.12
2019-01-03T12:50:53.595Z,100879.39
2019-01-03T12:53:20.440Z,100877.66
2019-01-03T12:55:48.296Z,100876.63
2019-01-03T12:58:15.030Z,100872.59
2019-01-03T13:00:42.269Z,100868.53
2019-01-03T13:03:09.048Z,100874.09
2019-01-03T13:05:35.916Z,100872.77
2019-01-03T13:08:02.809Z,100871.16
2019-01-03T13:10:29.563Z,100872.23
2019-01-03T13:12:56.339Z,100862.00
2019-01-03T13:15:23.102Z,100865.38
2019-01-03T13:17:49.878Z,100867.84
2019-01-03T13:20:16.585Z,100883.88
2019-01-03T13:22:46.286Z,100874.45
2019-01-03T13:25:13.044Z,100874.45
2019-01-03T13:27:39.900Z,100877.48
2019-01-03T13:30:08.484Z,100884.66
2019-01-03T13:32:35.234Z,100891.59
2019-01-03T13:35:01.979Z,100883.55
2019-01-03T13:37:28.703Z,100882.50
2019-01-03T13:39:57.443Z,100882.50
2019-01-03T13:42:24.184Z,100890.66
2019-01-03T13:44:51.036Z,100889.68
2019-01-03T13:47:19.785Z,100877.45
2019-01-03T13:49:47.336Z,100885.95
2019-01-03T13:52:14.165Z,100875.33
2019-01-03T13:54:41.184Z,100876.49
2019-01-03T13:57:10.847Z,100880.52
2019-01-03T13:59:41.106Z,100882.84
2019-01-03T14:02:09.527Z,100882.84
2019-01-03T14:04:36.265Z,100886.47
2019-01-03T14:07:03.227Z,100878.95
2019-01-03T14:09:29.955Z,100882.88
2019-01-03T14:11:56.698Z,100879.78
2019-01-03T14:14:23.529Z,100881.86
2019-01-03T14:16:50.250Z,100871.22
2019-01-03T14:19:17.375Z,100883.41
2019-01-03T14:21:44.336Z,100886.77
2019-01-03T14:24:11.197Z,100887.07
2019-01-03T14:26:38.897Z,100887.13
2019-01-03T14:29:05.763Z,100898.99
2019-01-03T14:31:32.515Z,100898.99
2019-01-03T14:33:59.354Z,100891.20
2019-01-03T14:36:26.073Z,100891.20
2019-01-03T14:38:55.140Z,100898.77
2019-01-03T14:41:21.895Z,100897.91
2019-01-03T14:43:48.772Z,100900.05
2019-01-03T14:46:15.661Z,100904.76
2019-01-03T14:48:42.521Z,100894.88
2019-01-03T14:51:09.614Z,100884.56
2019-01-03T14:53:36.624Z,100884.56
2019-01-03T14:56:03.637Z,100883.30
2019-01-03T14:58:30.786Z,100894.02
2019-01-03T15:00:57.547Z,100880.48
2019-01-03T15:03:24.302Z,100880.48
2019-01-03T15:05:51.133Z,100891.55
2019-01-03T15:08:18.122Z,100889.64
2019-01-03T15:10:44.975Z,100887.52
2019-01-03T15:13:12.108Z,100891.48
2019-01-03T15:15:38.907Z,100895.78
2019-01-03T15:18:08.058Z,100898.98
2019-01-03T15:20:34.965Z,100893.77
2019-01-03T15:23:01.710Z,100897.83
2019-01-03T15:25:28.573Z,100891.33
2019-01-03T15:27:55.443Z,100891.33
2019-01-03T15:30:24.071Z,100890.92
2019-01-03T15:32:50.809Z,100898.48
2019-01-03T15:35:17.522Z,100907.56
2019-01-03T15:37:44.248Z,100892.38
2019-01-03T15:40:11.029Z,100897.68
2019-01-03T15:42:37.831Z,100897.68
2019-01-03T15:45:05.883Z,100898.50
2019-01-03T15:47:32.606Z,100909.27
2019-01-03T15:50:00.309Z,100896.03
2019-01-03T15:52:27.184Z,100913.98
2019-01-03T15:54:53.986Z,100905.34
2019-01-03T15:57:24.054Z,100905.34
2019-01-03T15:59:51.031Z,100904.37
2019-01-03T16:02:17.904Z,100909.36
2019-01-03T16:04:44.782Z,100914.44
2019-01-03T16:07:11.523Z,100913.58
2019-01-03T16:09:38.259Z,100913.58
2019-01-03T16:12:05.089Z,100908.80
2019-01-03T16:14:31.908Z,100919.45
2019-01-03T16:16:58.693Z,100915.94
2019-01-03T16:19:27.285Z,100917.06
2019-01-03T16:21:54.200Z,100908.98
2019-01-03T16:24:20.938Z,100912.42
2019-01-03T16:26:47.786Z,100912.42
2019-01-03T16:29:14.495Z,100906.66
2019-01-03T16:31:41.308Z,100906.84
2019-01-03T16:34:08.163Z,100917.77
2019-01-03T16:36:34.951Z,100912.37
2019-01-03T16:39:02.172Z,100910.83
2019-01-03T16:41:29.179Z,100913.05
2019-01-03T16:43:55.952Z,100913.05
2019-01-03T16:46:24.006Z,100899.97
2019-01-03T16:48:52.867Z,100905.47
2019-01-03T16:51:19.965Z,100896.34
2019-01-03T16:53:46.884Z,100894.28
2019-01-03T16:56:14.058Z,100907.64
2019-01-03T16:58:40.855Z,100907.64
2019-01-03T17:01:07.801Z,100904.57
2019-01-03T17:03:34.545Z,100899.52
2019-01-03T17:06:01.288Z,100905.91
2019-01-03T17:08:28.125Z,100911.97
2019-01-03T17:10:56.947Z,100896.23
2019-01-03T17:13:23.835Z,100908.13
2019-01-03T17:15:50.795Z,100906.52
2019-01-03T17:18:17.780Z,100906.52
2019-01-03T17:20:44.702Z,100908.84
2019-01-03T17:23:11.465Z,100907.45
2019-01-03T17:25:38.275Z,100907.45
2019-01-03T17:28:05.166Z,100901.02
2019-01-03T17:30:33.252Z,100889.13
2019-01-03T17:33:00.047Z,100899.41
2019-01-03T17:35:26.935Z,100892.49
2019-01-03T17:37:54.914Z,100892.49
2019-01-03T17:40:21.735Z,100892.94
2019-01-03T17:42:49.228Z,100895.14
2019-01-03T17:45:15.971Z,100891.74
2019-01-03T17:47:42.762Z,100892.98
2019-01-03T17:50:09.992Z,100892.98
2019-01-03T17:52:36.743Z,100905.52
2019-01-03T17:55:04.112Z,100903.38
2019-01-03T17:57:32.277Z,100906.44
2019-01-03T17:59:59.055Z,100906.44
2019-01-03T18:02:26.009Z,100912.88
2019-01-03T18:04:53.068Z,100915.05
2019-01-03T18:07:19.785Z,100915.23
2019-01-03T18:09:46.697Z,100913.92
2019-01-03T18:12:13.588Z,100920.34
2019-01-03T18:14:41.521Z,100920.34
2019-01-03T18:17:08.441Z,100919.83
2019-01-03T18:19:35.742Z,100919.83
2019-01-03T18:22:04.527Z,100921.63
2019-01-03T18:24:31.287Z,100921.63
2019-01-03T18:26:58.174Z,100927.68
2019-01-03T18:29:26.247Z,100926.41
2019-01-03T18:31:53.245Z,100932.13
2019-01-03T18:34:21.302Z,100931.34
2019-01-03T18:36:48.639Z,100932.98
2019-01-03T18:39:15.629Z,100932.98
2019-01-03T18:41:42.847Z,100939.83
2019-01-03T18:44:10.147Z,100944.36
2019-01-03T18:46:37.387Z,100938.12
2019-01-03T18:49:04.139Z,100947.73
2019-01-03T18:51:30.885Z,100934.27
2019-01-03T18:53:57.892Z,100922.78
2019-01-03T18:56:26.682Z,100927.05
2019-01-03T18:58:53.459Z,100919.23
2019-01-03T19:01:20.545Z,100919.23
2019-01-03T19:03:47.950Z,100910.44
2019-01-03T19:06:14.827Z,100921.37
2019-01-03T19:08:41.707Z,100921.37
2019-01-03T19:11:09.076Z,100934.04
2019-01-03T19:13:35.919Z,100938.11
2019-01-03T19:16:02.650Z,100938.11
2019-01-03T19:18:29.506Z,100932.22
2019-01-03T19:20:56.252Z,100932.22
2019-01-03T19:23:23.192Z,100928.30
2019-01-03T19:25:49.917Z,100938.03
2019-01-03T19:28:17.608Z,100938.03
2019-01-03T19:30:44.335Z,100940.68
2019-01-03T19:33:11.135Z,100933.38
2019-01-03T19:35:38.274Z,100933.38
2019-01-03T19:38:05.250Z,100942.37
2019-01-03T19:40:32.102Z,100942.37
2019-01-03T19:42:58.877Z,100939.06
2019-01-03T19:45:25.652Z,100939.06
2019-01-03T19:47:52.632Z,100941.92
2019-01-03T19:50:19.856Z,100934.31
2019-01-03T19:52:46.589Z,100936.44
2019-01-03T19:55:13.479Z,100936.44
2019-01-03T19:57:40.507Z,100930.27
2019-01-03T20:00:09.150Z,100923.42
2019-01-03T20:02:36.015Z,100935.02
2019-01-03T20:05:02.888Z,100932.88
2019-01-03T20:07:29.696Z,100928.13
2019-01-03T20:09:56.478Z,100928.02
2019-01-03T20:12:23.427Z,100946.52
2019-01-03T20:14:50.367Z,100943.20
2019-01-03T20:17:17.106Z,100949.71
2019-01-03T20:19:43.832Z,100936.47
2019-01-03T20:22:10.894Z,100941.41
2019-01-03T20:24:37.824Z,100947.84
2019-01-03T20:27:04.734Z,100936.37
2019-01-03T20:29:31.584Z,100936.37
2019-01-03T20:31:58.596Z,100940.18
2019-01-03T20:34:25.541Z,100919.79
2019-01-03T20:36:52.741Z,100921.81
2019-01-03T20:39:19.775Z,100921.81
2019-01-03T20:41:46.582Z,100920.84
2019-01-03T20:44:13.527Z,100922.16
2019-01-03T20:46:40.257Z,100911.53
2019-01-03T20:49:07.516Z,100918.30
2019-01-03T20:51:34.836Z,100908.83
2019-01-03T20:54:01.729Z,100908.83
2019-01-03T20:56:28.701Z,100901.27
2019-01-03T20:58:57.143Z,100905.20
2019-01-03T21:01:24.133Z,100901.27
2019-01-03T21:03:50.895Z,100894.73
2019-01-03T21:06:19.831Z,100912.91
2019-01-03T21:08:46.952Z,100912.91
2019-01-03T21:11:13.950Z,100911.92
2019-01-03T21:13:40.755Z,100911.92
2019-01-03T21:16:08.215Z,100904.39
2019-01-03T21:18:35.130Z,100904.39
2019-01-03T21:21:02.329Z,100908.50
2019-01-03T21:23:29.081Z,100906.93
2019-01-03T21:25:55.855Z,100900.72
2019-01-03T21:28:25.121Z,100902.92
2019-01-03T21:30:51.929Z,100902.92
2019-01-03T21:33:19.997Z,100907.86
2019-01-03T21:35:47.010Z,100914.48
2019-01-03T21:38:14.153Z,100919.64
2019-01-03T21:40:41.130Z,100915.68
2019-01-03T21:43:08.104Z,100908.05
2019-01-03T21:45:34.995Z,100908.05
2019-01-03T21:48:02.414Z,100909.77
2019-01-03T21:50:30.049Z,100909.77
2019-01-03T21:52:56.838Z,100904.23
2019-01-03T21:55:23.688Z,100898.35
2019-01-03T21:57:53.140Z,100903.98
2019-01-03T22:00:19.964Z,100910.64
2019-01-03T22:02:46.740Z,100908.20
2019-01-03T22:05:13.879Z,100901.36
2019-01-03T22:07:43.078Z,100893.52
2019-01-03T22:10:10.208Z,100893.52
2019-01-03T22:12:36.928Z,100895.71
2019-01-03T22:15:05.089Z,100895.71
2019-01-03T22:17:31.800Z,100890.03
2019-01-03T22:19:58.574Z,100896.34
2019-01-03T22:22:25.521Z,100896.34
2019-01-03T22:24:52.282Z,100899.95
2019-01-03T22:27:19.107Z,100898.70
2019-01-03T22:29:46.523Z,100899.94
2019-01-03T22:32:13.263Z,100901.80
2019-01-03T22:34:39.990Z,100902.25
2019-01-03T22:37:06.813Z,100911.28
2019-01-03T22:39:33.574Z,100910.05
2019-01-03T22:42:00.297Z,100912.28
2019-01-03T22:44:27.252Z,100912.28
2019-01-03T22:46:54.126Z,100901.13
2019-01-03T22:49:20.904Z,100909.61
2019-01-03T22:51:47.825Z,100932.03
2019-01-03T22:54:14.679Z,100932.03
2019-01-03T22:56:41.422Z,100939.56
2019-01-03T22:59:10.883Z,100932.05
2019-01-03T23:01:37.898Z,100944.23
2019-01-03T23:04:05.063Z,100937.55
2019-01-03T23:06:33.791Z,100924.33
2019-01-03T23:09:00.796Z,100938.84
2019-01-03T23:11:27.524Z,100944.62
2019-01-03T23:13:54.284Z,100944.62
2019-01-03T23:16:21.266Z,100946.13
2019-01-03T23:18:48.029Z,100953.97
2019-01-03T23:21:14.878Z,100948.75
2019-01-03T23:23:41.700Z,100948.75
2019-01-03T23:26:08.516Z,100964.09
2019-01-03T23:28:36.407Z,100964.09
2019-01-03T23:31:05.980Z,100962.23
2019-01-03T23:33:33.033Z,100961.36
2019-01-03T23:35:59.769Z,100976.09
2019-01-03T23:38:27.312Z,100957.77
2019-01-03T23:40:55.921Z,100957.77
2019-01-03T23:43:22.715Z,100968.03
2019-01-03T23:45:49.718Z,100968.03
2019-01-03T23:48:16.645Z,100968.69
2019-01-03T23:50:43.423Z,100961.86
2019-01-03T23:53:10.315Z,100963.06
2019-01-03T23:55:50.105Z,100963.06
2019-01-03T23:58:17.064Z,100960.44
